Terminal Aerodrome Forecast
Issued by NWS Nashville, TN

Home | Current Version | Previous Version | Text Only | Print | Product List | Glossary On
Versions: 1 2 3 4 5 6 7 8 9 10 11 12 13 14 15 16 17 18 19 20 21 22 23 24 25 26 27 28 29
093
FTUS44 KOHX 272320
TAFBNA
TAF
KBNA 272320Z 2800/2824 04009KT P6SM SCT040 BKN080 BKN250
      TEMPO 2800/2802 VRB15G35KT 2SM TSRA OVC035CB
     FM280200 15006KT P6SM -SHRA OVC080
     FM280900 26006KT P6SM OVC012
     FM282100 32004KT P6SM SCT040=

USA.gov is the U.S. government's official web portal to all federal, state and local government web resources and services.